sensor_id;sensor_type;location;lat;lon;timestamp;temperature;humidity
3360;DHT22;1693;49.602;11.046;2022-09-03T00:01:17;14.20;99.90
3360;DHT22;1693;49.602;11.046;2022-09-03T00:03:50;14.30;99.90
3360;DHT22;1693;49.602;11.046;2022-09-03T00:06:25;14.20;99.90
3360;DHT22;1693;49.602;11.046;2022-09-03T00:08:57;14.20;99.90
3360;DHT22;1693;49.602;11.046;2022-09-03T00:11:29;14.20;99.90
3360;DHT22;1693;49.602;11.046;2022-09-03T00:14:03;14.10;99.90
3360;DHT22;1693;49.602;11.046;2022-09-03T00:16:44;14.10;99.90
3360;DHT22;1693;49.602;11.046;2022-09-03T00:19:17;14.00;99.90
3360;DHT22;1693;49.602;11.046;2022-09-03T00:21:51;14.00;99.90
3360;DHT22;1693;49.602;11.046;2022-09-03T00:24:23;14.00;99.90
3360;DHT22;1693;49.602;11.046;2022-09-03T00:26:54;14.00;99.90
3360;DHT22;1693;49.602;11.046;2022-09-03T00:29:24;13.90;99.90
3360;DHT22;1693;49.602;11.046;2022-09-03T00:31:57;13.70;99.90
3360;DHT22;1693;49.602;11.046;2022-09-03T00:34:30;13.70;99.90
3360;DHT22;1693;49.602;11.046;2022-09-03T00:37:01;13.70;99.90
3360;DHT22;1693;49.602;11.046;2022-09-03T00:39:28;13.70;99.90
3360;DHT22;1693;49.602;11.046;2022-09-03T00:42:08;13.60;99.90
3360;DHT22;1693;49.602;11.046;2022-09-03T00:44:56;13.50;99.90
3360;DHT22;1693;49.602;11.046;2022-09-03T00:47:33;13.50;99.90
3360;DHT22;1693;49.602;11.046;2022-09-03T00:50:08;13.50;99.90
3360;DHT22;1693;49.602;11.046;2022-09-03T00:52:48;13.50;99.90
3360;DHT22;1693;49.602;11.046;2022-09-03T00:55:26;13.40;99.90
3360;DHT22;1693;49.602;11.046;2022-09-03T00:58:06;13.30;99.90
3360;DHT22;1693;49.602;11.046;2022-09-03T01:00:38;13.20;99.90
3360;DHT22;1693;49.602;11.046;2022-09-03T01:03:09;13.20;99.90
3360;DHT22;1693;49.602;11.046;2022-09-03T01:05:46;13.10;99.90
3360;DHT22;1693;49.602;11.046;2022-09-03T01:08:37;13.20;99.90
3360;DHT22;1693;49.602;11.046;2022-09-03T01:11:16;13.10;99.90
3360;DHT22;1693;49.602;11.046;2022-09-03T01:13:49;13.10;99.90
3360;DHT22;1693;49.602;11.046;2022-09-03T01:16:25;13.10;99.90
3360;DHT22;1693;49.602;11.046;2022-09-03T01:19:00;13.00;99.90
3360;DHT22;1693;49.602;11.046;2022-09-03T01:21:43;13.00;99.90
3360;DHT22;1693;49.602;11.046;2022-09-03T01:24:45;13.00;99.90
3360;DHT22;1693;49.602;11.046;2022-09-03T01:27:24;13.00;99.90
3360;DHT22;1693;49.602;11.046;2022-09-03T01:30:02;12.90;99.90
3360;DHT22;1693;49.602;11.046;2022-09-03T01:32:34;12.90;99.90
3360;DHT22;1693;49.602;11.046;2022-09-03T01:35:11;12.90;99.90
3360;DHT22;1693;49.602;11.046;2022-09-03T01:37:54;12.80;99.90
3360;DHT22;1693;49.602;11.046;2022-09-03T01:40:28;12.80;99.90
3360;DHT22;1693;49.602;11.046;2022-09-03T01:43:09;12.80;99.90
3360;DHT22;1693;49.602;11.046;2022-09-03T01:45:50;12.80;99.90
3360;DHT22;1693;49.602;11.046;2022-09-03T01:48:31;12.70;99.90
3360;DHT22;1693;49.602;11.046;2022-09-03T01:51:09;12.80;99.90
3360;DHT22;1693;49.602;11.046;2022-09-03T01:59:42;12.70;99.90
3360;DHT22;1693;49.602;11.046;2022-09-03T02:02:15;12.70;99.90
3360;DHT22;1693;49.602;11.046;2022-09-03T02:04:56;12.70;99.90
3360;DHT22;1693;49.602;11.046;2022-09-03T02:07:25;12.60;99.90
3360;DHT22;1693;49.602;11.046;2022-09-03T02:09:54;12.60;99.90
3360;DHT22;1693;49.602;11.046;2022-09-03T02:12:21;12.60;99.90
3360;DHT22;1693;49.602;11.046;2022-09-03T02:14:48;12.70;99.90
3360;DHT22;1693;49.602;11.046;2022-09-03T02:17:17;12.60;99.90
3360;DHT22;1693;49.602;11.046;2022-09-03T02:19:44;12.60;99.90
3360;DHT22;1693;49.602;11.046;2022-09-03T02:22:12;12.60;99.90
3360;DHT22;1693;49.602;11.046;2022-09-03T02:24:39;12.60;99.90
3360;DHT22;1693;49.602;11.046;2022-09-03T02:27:06;12.60;99.90
3360;DHT22;1693;49.602;11.046;2022-09-03T02:29:33;12.50;99.90
3360;DHT22;1693;49.602;11.046;2022-09-03T02:32:01;12.50;99.90
3360;DHT22;1693;49.602;11.046;2022-09-03T02:34:30;12.50;99.90
3360;DHT22;1693;49.602;11.046;2022-09-03T02:36:57;12.40;99.90
3360;DHT22;1693;49.602;11.046;2022-09-03T02:39:24;12.50;99.90
3360;DHT22;1693;49.602;11.046;2022-09-03T02:41:54;12.50;99.90
3360;DHT22;1693;49.602;11.046;2022-09-03T02:44:26;12.40;99.90
3360;DHT22;1693;49.602;11.046;2022-09-03T02:46:57;12.50;99.90
3360;DHT22;1693;49.602;11.046;2022-09-03T02:49:24;12.50;99.90
3360;DHT22;1693;49.602;11.046;2022-09-03T02:51:57;12.50;99.90
3360;DHT22;1693;49.602;11.046;2022-09-03T02:54:26;12.60;99.90
3360;DHT22;1693;49.602;11.046;2022-09-03T02:56:53;12.60;99.90
3360;DHT22;1693;49.602;11.046;2022-09-03T02:59:20;12.60;99.90
3360;DHT22;1693;49.602;11.046;2022-09-03T03:01:48;12.60;99.90
3360;DHT22;1693;49.602;11.046;2022-09-03T03:04:15;12.50;99.90
3360;DHT22;1693;49.602;11.046;2022-09-03T03:06:43;12.50;99.90
3360;DHT22;1693;49.602;11.046;2022-09-03T03:09:11;12.50;99.90
3360;DHT22;1693;49.602;11.046;2022-09-03T03:11:38;12.40;99.90
3360;DHT22;1693;49.602;11.046;2022-09-03T03:14:06;12.40;99.90
3360;DHT22;1693;49.602;11.046;2022-09-03T03:16:33;12.40;99.90
3360;DHT22;1693;49.602;11.046;2022-09-03T03:19:00;12.40;99.90
3360;DHT22;1693;49.602;11.046;2022-09-03T03:21:27;12.40;99.90
3360;DHT22;1693;49.602;11.046;2022-09-03T03:23:55;12.40;99.90
3360;DHT22;1693;49.602;11.046;2022-09-03T03:26:23;12.40;99.90
3360;DHT22;1693;49.602;11.046;2022-09-03T03:28:57;12.40;99.90
3360;DHT22;1693;49.602;11.046;2022-09-03T03:31:25;12.40;99.90
3360;DHT22;1693;49.602;11.046;2022-09-03T03:33:54;12.40;99.90
3360;DHT22;1693;49.602;11.046;2022-09-03T03:36:23;12.50;99.90
3360;DHT22;1693;49.602;11.046;2022-09-03T03:38:53;12.50;99.90
3360;DHT22;1693;49.602;11.046;2022-09-03T03:41:24;12.50;99.90
3360;DHT22;1693;49.602;11.046;2022-09-03T03:43:52;12.50;99.90
3360;DHT22;1693;49.602;11.046;2022-09-03T03:46:20;12.40;99.90
3360;DHT22;1693;49.602;11.046;2022-09-03T03:48:48;12.40;99.90
3360;DHT22;1693;49.602;11.046;2022-09-03T03:51:17;12.40;99.90
3360;DHT22;1693;49.602;11.046;2022-09-03T03:53:44;12.30;99.90
3360;DHT22;1693;49.602;11.046;2022-09-03T03:56:14;12.30;99.90
3360;DHT22;1693;49.602;11.046;2022-09-03T03:58:43;12.20;99.90
3360;DHT22;1693;49.602;11.046;2022-09-03T04:01:11;12.10;99.90
3360;DHT22;1693;49.602;11.046;2022-09-03T04:03:39;12.00;99.90
3360;DHT22;1693;49.602;11.046;2022-09-03T04:06:07;12.00;99.90
3360;DHT22;1693;49.602;11.046;2022-09-03T04:08:36;11.80;99.90
3360;DHT22;1693;49.602;11.046;2022-09-03T04:11:04;11.80;99.90
3360;DHT22;1693;49.602;11.046;2022-09-03T04:13:32;11.90;99.90
3360;DHT22;1693;49.602;11.046;2022-09-03T04:16:02;11.80;99.90
3360;DHT22;1693;49.602;11.046;2022-09-03T04:18:30;11.80;99.90
3360;DHT22;1693;49.602;11.046;2022-09-03T04:21:00;11.80;99.90
3360;DHT22;1693;49.602;11.046;2022-09-03T04:23:30;11.80;99.90
3360;DHT22;1693;49.602;11.046;2022-09-03T04:25:57;11.80;99.90
3360;DHT22;1693;49.602;11.046;2022-09-03T04:28:25;11.80;99.90
3360;DHT22;1693;49.602;11.046;2022-09-03T04:30:52;11.80;99.90
3360;DHT22;1693;49.602;11.046;2022-09-03T04:33:20;11.80;99.90
3360;DHT22;1693;49.602;11.046;2022-09-03T04:35:49;11.80;99.90
3360;DHT22;1693;49.602;11.046;2022-09-03T04:38:16;11.80;99.90
3360;DHT22;1693;49.602;11.046;2022-09-03T04:40:47;11.80;99.90
3360;DHT22;1693;49.602;11.046;2022-09-03T04:43:17;11.90;99.90
3360;DHT22;1693;49.602;11.046;2022-09-03T04:45:44;11.90;99.90
3360;DHT22;1693;49.602;11.046;2022-09-03T04:48:11;12.00;99.90
3360;DHT22;1693;49.602;11.046;2022-09-03T04:50:40;12.00;99.90
3360;DHT22;1693;49.602;11.046;2022-09-03T04:53:07;12.10;99.90
3360;DHT22;1693;49.602;11.046;2022-09-03T04:55:34;12.20;99.90
3360;DHT22;1693;49.602;11.046;2022-09-03T04:58:02;12.20;99.90
3360;DHT22;1693;49.602;11.046;2022-09-03T05:00:29;12.30;99.90
3360;DHT22;1693;49.602;11.046;2022-09-03T05:02:59;12.40;99.90
3360;DHT22;1693;49.602;11.046;2022-09-03T05:05:30;12.50;99.90
3360;DHT22;1693;49.602;11.046;2022-09-03T05:08:00;12.60;99.90
3360;DHT22;1693;49.602;11.046;2022-09-03T05:10:27;12.60;99.90
3360;DHT22;1693;49.602;11.046;2022-09-03T05:12:58;12.70;99.90
3360;DHT22;1693;49.602;11.046;2022-09-03T05:15:26;12.80;99.90
3360;DHT22;1693;49.602;11.046;2022-09-03T05:17:57;12.90;99.90
3360;DHT22;1693;49.602;11.046;2022-09-03T05:20:24;13.00;99.90
3360;DHT22;1693;49.602;11.046;2022-09-03T05:22:51;13.10;99.90
3360;DHT22;1693;49.602;11.046;2022-09-03T05:25:19;13.20;99.90
3360;DHT22;1693;49.602;11.046;2022-09-03T05:27:47;13.20;99.90
3360;DHT22;1693;49.602;11.046;2022-09-03T05:30:15;13.30;99.90
3360;DHT22;1693;49.602;11.046;2022-09-03T05:32:42;13.30;99.90
3360;DHT22;1693;49.602;11.046;2022-09-03T05:35:10;13.40;99.90
3360;DHT22;1693;49.602;11.046;2022-09-03T05:37:37;13.40;99.90
3360;DHT22;1693;49.602;11.046;2022-09-03T05:40:05;13.50;99.90
3360;DHT22;1693;49.602;11.046;2022-09-03T05:42:35;13.50;99.90
3360;DHT22;1693;49.602;11.046;2022-09-03T05:45:04;13.60;99.90
3360;DHT22;1693;49.602;11.046;2022-09-03T05:47:34;13.70;99.90
3360;DHT22;1693;49.602;11.046;2022-09-03T05:50:02;13.90;99.90
3360;DHT22;1693;49.602;11.046;2022-09-03T05:52:29;14.00;99.90
3360;DHT22;1693;49.602;11.046;2022-09-03T05:54:56;14.10;99.90
3360;DHT22;1693;49.602;11.046;2022-09-03T05:57:23;14.20;99.90
3360;DHT22;1693;49.602;11.046;2022-09-03T05:59:52;14.20;99.90
3360;DHT22;1693;49.602;11.046;2022-09-03T06:02:19;14.40;99.90
3360;DHT22;1693;49.602;11.046;2022-09-03T06:04:46;14.60;99.90
3360;DHT22;1693;49.602;11.046;2022-09-03T06:07:13;14.70;99.90
3360;DHT22;1693;49.602;11.046;2022-09-03T06:09:40;14.90;99.90
3360;DHT22;1693;49.602;11.046;2022-09-03T06:12:07;15.00;99.90
3360;DHT22;1693;49.602;11.046;2022-09-03T06:14:34;15.10;99.90
3360;DHT22;1693;49.602;11.046;2022-09-03T06:17:03;15.20;99.90
3360;DHT22;1693;49.602;11.046;2022-09-03T06:19:30;15.00;99.90
3360;DHT22;1693;49.602;11.046;2022-09-03T06:21:57;15.10;99.90
3360;DHT22;1693;49.602;11.046;2022-09-03T06:24:24;15.20;99.90
3360;DHT22;1693;49.602;11.046;2022-09-03T06:26:54;15.30;99.90
3360;DHT22;1693;49.602;11.046;2022-09-03T06:29:21;15.50;99.90
3360;DHT22;1693;49.602;11.046;2022-09-03T06:31:48;15.60;99.90
3360;DHT22;1693;49.602;11.046;2022-09-03T06:34:17;15.80;99.90
3360;DHT22;1693;49.602;11.046;2022-09-03T06:36:44;16.10;99.90
3360;DHT22;1693;49.602;11.046;2022-09-03T06:39:11;16.20;99.90
3360;DHT22;1693;49.602;11.046;2022-09-03T06:41:38;16.30;99.90
3360;DHT22;1693;49.602;11.046;2022-09-03T06:44:06;16.20;99.90
3360;DHT22;1693;49.602;11.046;2022-09-03T06:46:37;16.20;99.90
3360;DHT22;1693;49.602;11.046;2022-09-03T06:49:07;16.40;99.90
3360;DHT22;1693;49.602;11.046;2022-09-03T06:51:36;16.50;99.90
3360;DHT22;1693;49.602;11.046;2022-09-03T06:54:05;16.60;99.90
3360;DHT22;1693;49.602;11.046;2022-09-03T06:56:33;16.60;99.90
3360;DHT22;1693;49.602;11.046;2022-09-03T06:59:04;16.70;99.90
3360;DHT22;1693;49.602;11.046;2022-09-03T07:01:33;16.90;99.90
3360;DHT22;1693;49.602;11.046;2022-09-03T07:04:02;16.80;99.90
3360;DHT22;1693;49.602;11.046;2022-09-03T07:06:33;16.90;99.90
3360;DHT22;1693;49.602;11.046;2022-09-03T07:09:08;17.20;99.90
3360;DHT22;1693;49.602;11.046;2022-09-03T07:11:37;17.50;99.90
3360;DHT22;1693;49.602;11.046;2022-09-03T07:14:13;18.00;99.90
3360;DHT22;1693;49.602;11.046;2022-09-03T07:16:41;18.20;99.90
3360;DHT22;1693;49.602;11.046;2022-09-03T07:19:08;18.40;99.90
3360;DHT22;1693;49.602;11.046;2022-09-03T07:21:38;18.50;99.90
3360;DHT22;1693;49.602;11.046;2022-09-03T07:24:08;18.60;99.90
3360;DHT22;1693;49.602;11.046;2022-09-03T07:26:37;18.70;99.90
3360;DHT22;1693;49.602;11.046;2022-09-03T07:29:05;18.50;99.90
3360;DHT22;1693;49.602;11.046;2022-09-03T07:31:34;18.40;99.90
3360;DHT22;1693;49.602;11.046;2022-09-03T07:34:04;18.20;99.90
3360;DHT22;1693;49.602;11.046;2022-09-03T07:36:35;18.40;99.90
3360;DHT22;1693;49.602;11.046;2022-09-03T07:39:07;18.50;99.90
3360;DHT22;1693;49.602;11.046;2022-09-03T07:41:34;18.60;99.90
3360;DHT22;1693;49.602;11.046;2022-09-03T07:44:02;18.70;99.90
3360;DHT22;1693;49.602;11.046;2022-09-03T07:46:32;18.60;99.90
3360;DHT22;1693;49.602;11.046;2022-09-03T07:49:00;18.80;99.90
3360;DHT22;1693;49.602;11.046;2022-09-03T07:51:29;18.90;99.90
3360;DHT22;1693;49.602;11.046;2022-09-03T07:53:58;19.00;99.90
3360;DHT22;1693;49.602;11.046;2022-09-03T07:56:28;19.30;99.90
3360;DHT22;1693;49.602;11.046;2022-09-03T07:58:55;19.40;99.90
3360;DHT22;1693;49.602;11.046;2022-09-03T08:01:25;19.40;99.90
3360;DHT22;1693;49.602;11.046;2022-09-03T08:03:53;19.10;99.90
3360;DHT22;1693;49.602;11.046;2022-09-03T08:06:22;19.10;99.90
3360;DHT22;1693;49.602;11.046;2022-09-03T08:08:54;19.20;99.90
3360;DHT22;1693;49.602;11.046;2022-09-03T08:11:24;19.40;99.90
3360;DHT22;1693;49.602;11.046;2022-09-03T08:13:57;19.60;99.90
3360;DHT22;1693;49.602;11.046;2022-09-03T08:16:27;19.90;99.90
3360;DHT22;1693;49.602;11.046;2022-09-03T08:18:54;20.00;99.90
3360;DHT22;1693;49.602;11.046;2022-09-03T08:21:22;19.90;99.90
3360;DHT22;1693;49.602;11.046;2022-09-03T08:23:51;19.60;99.90
3360;DHT22;1693;49.602;11.046;2022-09-03T08:26:20;19.40;99.90
3360;DHT22;1693;49.602;11.046;2022-09-03T08:28:51;19.30;99.90
3360;DHT22;1693;49.602;11.046;2022-09-03T08:31:21;19.40;99.90
3360;DHT22;1693;49.602;11.046;2022-09-03T08:33:50;19.50;99.90
3360;DHT22;1693;49.602;11.046;2022-09-03T08:36:19;19.70;99.90
3360;DHT22;1693;49.602;11.046;2022-09-03T08:38:48;19.90;99.90
3360;DHT22;1693;49.602;11.046;2022-09-03T08:41:23;20.10;99.80
3360;DHT22;1693;49.602;11.046;2022-09-03T08:44:13;20.40;99.90
3360;DHT22;1693;49.602;11.046;2022-09-03T08:46:50;20.70;99.80
3360;DHT22;1693;49.602;11.046;2022-09-03T08:49:23;20.90;98.50
3360;DHT22;1693;49.602;11.046;2022-09-03T08:51:54;21.10;98.30
3360;DHT22;1693;49.602;11.046;2022-09-03T08:54:25;21.20;97.90
3360;DHT22;1693;49.602;11.046;2022-09-03T08:56:59;21.50;97.40
3360;DHT22;1693;49.602;11.046;2022-09-03T08:59:26;21.70;97.50
3360;DHT22;1693;49.602;11.046;2022-09-03T09:01:58;22.30;97.30
3360;DHT22;1693;49.602;11.046;2022-09-03T09:04:38;22.30;96.10
3360;DHT22;1693;49.602;11.046;2022-09-03T09:07:15;22.60;95.90
3360;DHT22;1693;49.602;11.046;2022-09-03T09:09:46;22.80;95.30
3360;DHT22;1693;49.602;11.046;2022-09-03T09:12:28;23.10;94.10
3360;DHT22;1693;49.602;11.046;2022-09-03T09:15:07;23.50;93.70
3360;DHT22;1693;49.602;11.046;2022-09-03T09:17:58;23.20;93.30
3360;DHT22;1693;49.602;11.046;2022-09-03T09:20:34;23.10;93.60
3360;DHT22;1693;49.602;11.046;2022-09-03T09:23:03;23.20;93.20
3360;DHT22;1693;49.602;11.046;2022-09-03T09:25:33;23.20;93.30
3360;DHT22;1693;49.602;11.046;2022-09-03T09:28:11;23.20;93.30
3360;DHT22;1693;49.602;11.046;2022-09-03T09:30:43;22.70;93.10
3360;DHT22;1693;49.602;11.046;2022-09-03T09:33:13;22.50;93.20
3360;DHT22;1693;49.602;11.046;2022-09-03T09:35:41;22.40;93.80
3360;DHT22;1693;49.602;11.046;2022-09-03T09:38:08;22.40;93.80
3360;DHT22;1693;49.602;11.046;2022-09-03T09:40:37;22.50;93.90
3360;DHT22;1693;49.602;11.046;2022-09-03T09:43:09;22.10;93.60
3360;DHT22;1693;49.602;11.046;2022-09-03T09:45:39;22.30;94.70
3360;DHT22;1693;49.602;11.046;2022-09-03T09:48:14;22.40;94.00
3360;DHT22;1693;49.602;11.046;2022-09-03T09:50:44;22.20;94.00
3360;DHT22;1693;49.602;11.046;2022-09-03T09:53:17;22.40;94.30
3360;DHT22;1693;49.602;11.046;2022-09-03T09:55:50;22.50;94.30
3360;DHT22;1693;49.602;11.046;2022-09-03T09:58:19;22.40;93.80
3360;DHT22;1693;49.602;11.046;2022-09-03T10:01:01;22.60;93.80
3360;DHT22;1693;49.602;11.046;2022-09-03T10:03:32;22.70;93.50
3360;DHT22;1693;49.602;11.046;2022-09-03T10:06:06;22.90;94.00
3360;DHT22;1693;49.602;11.046;2022-09-03T10:08:51;23.10;93.60
3360;DHT22;1693;49.602;11.046;2022-09-03T10:11:20;23.10;92.90
3360;DHT22;1693;49.602;11.046;2022-09-03T10:13:52;23.30;93.20
3360;DHT22;1693;49.602;11.046;2022-09-03T10:16:22;23.50;92.60
3360;DHT22;1693;49.602;11.046;2022-09-03T10:19:01;23.60;92.60
3360;DHT22;1693;49.602;11.046;2022-09-03T10:21:34;23.60;91.80
3360;DHT22;1693;49.602;11.046;2022-09-03T10:24:14;23.50;91.40
3360;DHT22;1693;49.602;11.046;2022-09-03T10:26:45;23.70;92.00
3360;DHT22;1693;49.602;11.046;2022-09-03T10:29:17;23.80;91.30
3360;DHT22;1693;49.602;11.046;2022-09-03T10:32:02;23.80;91.00
3360;DHT22;1693;49.602;11.046;2022-09-03T10:34:40;23.90;91.10
3360;DHT22;1693;49.602;11.046;2022-09-03T10:37:18;24.30;90.60
3360;DHT22;1693;49.602;11.046;2022-09-03T10:39:55;24.30;90.60
3360;DHT22;1693;49.602;11.046;2022-09-03T10:42:36;24.70;90.60
3360;DHT22;1693;49.602;11.046;2022-09-03T10:45:17;24.90;89.80
3360;DHT22;1693;49.602;11.046;2022-09-03T10:50:47;25.60;87.60
3360;DHT22;1693;49.602;11.046;2022-09-03T10:53:27;26.50;84.90
3360;DHT22;1693;49.602;11.046;2022-09-03T10:56:00;27.10;84.40
3360;DHT22;1693;49.602;11.046;2022-09-03T10:58:38;26.90;81.10
3360;DHT22;1693;49.602;11.046;2022-09-03T11:01:13;26.30;81.90
3360;DHT22;1693;49.602;11.046;2022-09-03T11:03:45;26.30;80.90
3360;DHT22;1693;49.602;11.046;2022-09-03T11:06:20;26.40;82.50
3360;DHT22;1693;49.602;11.046;2022-09-03T11:08:53;27.10;80.60
3360;DHT22;1693;49.602;11.046;2022-09-03T11:11:30;27.30;80.60
3360;DHT22;1693;49.602;11.046;2022-09-03T11:14:02;27.90;79.30
3360;DHT22;1693;49.602;11.046;2022-09-03T11:16:32;28.20;76.40
3360;DHT22;1693;49.602;11.046;2022-09-03T11:19:04;28.10;75.30
3360;DHT22;1693;49.602;11.046;2022-09-03T11:21:36;28.00;75.50
3360;DHT22;1693;49.602;11.046;2022-09-03T11:24:08;28.20;74.90
3360;DHT22;1693;49.602;11.046;2022-09-03T11:26:39;28.70;74.50
3360;DHT22;1693;49.602;11.046;2022-09-03T11:29:11;29.00;73.60
3360;DHT22;1693;49.602;11.046;2022-09-03T11:31:53;29.10;71.70
3360;DHT22;1693;49.602;11.046;2022-09-03T11:34:28;29.70;71.00
3360;DHT22;1693;49.602;11.046;2022-09-03T11:37:18;31.10;69.00
3360;DHT22;1693;49.602;11.046;2022-09-03T11:39:54;31.00;65.00
3360;DHT22;1693;49.602;11.046;2022-09-03T11:42:31;31.40;63.00
3360;DHT22;1693;49.602;11.046;2022-09-03T11:45:13;32.60;62.90
3360;DHT22;1693;49.602;11.046;2022-09-03T11:47:46;33.00;59.40
3360;DHT22;1693;49.602;11.046;2022-09-03T11:50:18;32.90;57.80
3360;DHT22;1693;49.602;11.046;2022-09-03T11:52:47;33.20;58.80
3360;DHT22;1693;49.602;11.046;2022-09-03T11:55:27;34.40;57.30
3360;DHT22;1693;49.602;11.046;2022-09-03T11:57:57;34.40;55.40
3360;DHT22;1693;49.602;11.046;2022-09-03T12:00:24;33.70;55.20
3360;DHT22;1693;49.602;11.046;2022-09-03T12:02:55;34.30;54.80
3360;DHT22;1693;49.602;11.046;2022-09-03T12:05:29;33.60;54.80
3360;DHT22;1693;49.602;11.046;2022-09-03T12:11:07;32.50;54.70
3360;DHT22;1693;49.602;11.046;2022-09-03T12:13:48;33.60;56.40
3360;DHT22;1693;49.602;11.046;2022-09-03T12:19:20;34.50;53.40
3360;DHT22;1693;49.602;11.046;2022-09-03T12:21:50;34.10;54.20
3360;DHT22;1693;49.602;11.046;2022-09-03T12:24:19;33.90;54.10
3360;DHT22;1693;49.602;11.046;2022-09-03T12:26:48;35.20;54.30
3360;DHT22;1693;49.602;11.046;2022-09-03T12:29:23;36.30;52.80
3360;DHT22;1693;49.602;11.046;2022-09-03T12:31:51;36.70;51.90
3360;DHT22;1693;49.602;11.046;2022-09-03T12:34:22;36.30;51.00
3360;DHT22;1693;49.602;11.046;2022-09-03T12:36:51;35.00;51.30
3360;DHT22;1693;49.602;11.046;2022-09-03T12:39:21;34.50;52.10
3360;DHT22;1693;49.602;11.046;2022-09-03T12:41:58;34.70;52.60
3360;DHT22;1693;49.602;11.046;2022-09-03T12:44:29;34.70;52.70
3360;DHT22;1693;49.602;11.046;2022-09-03T12:47:01;34.20;52.90
3360;DHT22;1693;49.602;11.046;2022-09-03T12:49:34;34.30;53.30
3360;DHT22;1693;49.602;11.046;2022-09-03T12:52:04;34.60;52.60
3360;DHT22;1693;49.602;11.046;2022-09-03T12:54:41;34.00;53.50
3360;DHT22;1693;49.602;11.046;2022-09-03T12:57:10;33.50;53.70
3360;DHT22;1693;49.602;11.046;2022-09-03T12:59:43;32.80;54.80
3360;DHT22;1693;49.602;11.046;2022-09-03T13:02:15;31.90;55.70
3360;DHT22;1693;49.602;11.046;2022-09-03T13:04:44;31.30;56.60
3360;DHT22;1693;49.602;11.046;2022-09-03T13:07:23;30.90;57.60
3360;DHT22;1693;49.602;11.046;2022-09-03T13:09:57;30.30;58.60
3360;DHT22;1693;49.602;11.046;2022-09-03T13:12:32;29.40;59.70
3360;DHT22;1693;49.602;11.046;2022-09-03T13:15:06;28.80;62.30
3360;DHT22;1693;49.602;11.046;2022-09-03T13:17:52;28.40;63.30
3360;DHT22;1693;49.602;11.046;2022-09-03T13:20:37;28.00;65.10
3360;DHT22;1693;49.602;11.046;2022-09-03T13:23:14;27.60;66.40
3360;DHT22;1693;49.602;11.046;2022-09-03T13:25:53;27.20;67.60
3360;DHT22;1693;49.602;11.046;2022-09-03T13:28:34;26.80;69.30
3360;DHT22;1693;49.602;11.046;2022-09-03T13:31:18;26.40;71.30
3360;DHT22;1693;49.602;11.046;2022-09-03T13:33:58;26.10;72.70
3360;DHT22;1693;49.602;11.046;2022-09-03T13:36:32;25.80;74.10
3360;DHT22;1693;49.602;11.046;2022-09-03T13:39:03;25.50;75.50
3360;DHT22;1693;49.602;11.046;2022-09-03T13:41:36;25.50;76.60
3360;DHT22;1693;49.602;11.046;2022-09-03T13:44:08;25.60;77.20
3360;DHT22;1693;49.602;11.046;2022-09-03T13:46:44;25.50;77.90
3360;DHT22;1693;49.602;11.046;2022-09-03T13:49:26;25.50;78.20
3360;DHT22;1693;49.602;11.046;2022-09-03T13:52:20;25.60;79.00
3360;DHT22;1693;49.602;11.046;2022-09-03T13:54:52;25.80;79.40
3360;DHT22;1693;49.602;11.046;2022-09-03T13:57:29;25.70;79.50
3360;DHT22;1693;49.602;11.046;2022-09-03T14:00:03;25.70;79.00
3360;DHT22;1693;49.602;11.046;2022-09-03T14:02:47;26.00;79.10
3360;DHT22;1693;49.602;11.046;2022-09-03T14:05:25;26.30;78.90
3360;DHT22;1693;49.602;11.046;2022-09-03T14:08:14;26.60;77.80
3360;DHT22;1693;49.602;11.046;2022-09-03T14:11:02;26.90;76.60
3360;DHT22;1693;49.602;11.046;2022-09-03T14:13:45;27.30;76.30
3360;DHT22;1693;49.602;11.046;2022-09-03T14:16:25;27.70;75.70
3360;DHT22;1693;49.602;11.046;2022-09-03T14:18:59;27.90;73.90
3360;DHT22;1693;49.602;11.046;2022-09-03T14:21:32;27.90;73.50
3360;DHT22;1693;49.602;11.046;2022-09-03T14:24:09;27.80;74.30
3360;DHT22;1693;49.602;11.046;2022-09-03T14:26:49;27.40;75.10
3360;DHT22;1693;49.602;11.046;2022-09-03T14:29:30;27.00;75.90
3360;DHT22;1693;49.602;11.046;2022-09-03T14:32:22;27.00;76.90
3360;DHT22;1693;49.602;11.046;2022-09-03T14:35:09;26.70;78.00
3360;DHT22;1693;49.602;11.046;2022-09-03T14:38:09;26.70;77.50
3360;DHT22;1693;49.602;11.046;2022-09-03T14:40:44;26.50;78.70
3360;DHT22;1693;49.602;11.046;2022-09-03T14:43:26;26.50;77.80
3360;DHT22;1693;49.602;11.046;2022-09-03T14:46:14;26.20;79.20
3360;DHT22;1693;49.602;11.046;2022-09-03T14:51:42;26.10;80.00
3360;DHT22;1693;49.602;11.046;2022-09-03T14:54:30;25.90;81.30
3360;DHT22;1693;49.602;11.046;2022-09-03T14:57:13;25.60;82.10
3360;DHT22;1693;49.602;11.046;2022-09-03T14:59:59;25.50;83.00
3360;DHT22;1693;49.602;11.046;2022-09-03T15:03:02;25.50;83.30
3360;DHT22;1693;49.602;11.046;2022-09-03T15:05:41;25.50;83.50
3360;DHT22;1693;49.602;11.046;2022-09-03T15:08:20;25.60;83.70
3360;DHT22;1693;49.602;11.046;2022-09-03T15:10:54;25.70;84.70
3360;DHT22;1693;49.602;11.046;2022-09-03T15:13:24;25.80;84.50
3360;DHT22;1693;49.602;11.046;2022-09-03T15:16:02;25.80;84.40
3360;DHT22;1693;49.602;11.046;2022-09-03T15:18:55;25.80;84.10
3360;DHT22;1693;49.602;11.046;2022-09-03T15:21:35;25.70;84.60
3360;DHT22;1693;49.602;11.046;2022-09-03T15:24:08;25.40;85.20
3360;DHT22;1693;49.602;11.046;2022-09-03T15:26:54;25.30;85.70
3360;DHT22;1693;49.602;11.046;2022-09-03T15:29:44;25.10;86.60
3360;DHT22;1693;49.602;11.046;2022-09-03T15:32:22;25.10;87.50
3360;DHT22;1693;49.602;11.046;2022-09-03T15:35:07;24.70;88.60
3360;DHT22;1693;49.602;11.046;2022-09-03T15:37:41;24.40;90.00
3360;DHT22;1693;49.602;11.046;2022-09-03T15:40:26;24.10;90.80
3360;DHT22;1693;49.602;11.046;2022-09-03T15:42:59;23.80;91.50
3360;DHT22;1693;49.602;11.046;2022-09-03T15:45:34;23.70;92.20
3360;DHT22;1693;49.602;11.046;2022-09-03T15:48:12;23.50;92.80
3360;DHT22;1693;49.602;11.046;2022-09-03T15:50:52;23.40;93.50
3360;DHT22;1693;49.602;11.046;2022-09-03T15:53:29;23.30;94.40
3360;DHT22;1693;49.602;11.046;2022-09-03T15:56:21;23.30;95.10
3360;DHT22;1693;49.602;11.046;2022-09-03T15:58:59;23.10;95.80
3360;DHT22;1693;49.602;11.046;2022-09-03T16:01:38;23.10;96.30
3360;DHT22;1693;49.602;11.046;2022-09-03T16:04:24;22.90;96.70
3360;DHT22;1693;49.602;11.046;2022-09-03T16:06:58;22.80;97.40
3360;DHT22;1693;49.602;11.046;2022-09-03T16:09:35;22.80;97.80
3360;DHT22;1693;49.602;11.046;2022-09-03T16:12:13;22.80;98.10
3360;DHT22;1693;49.602;11.046;2022-09-03T16:14:46;22.80;98.40
3360;DHT22;1693;49.602;11.046;2022-09-03T16:17:23;22.70;98.90
3360;DHT22;1693;49.602;11.046;2022-09-03T16:19:57;22.80;99.10
3360;DHT22;1693;49.602;11.046;2022-09-03T16:22:29;22.60;99.50
3360;DHT22;1693;49.602;11.046;2022-09-03T16:25:00;22.60;99.90
3360;DHT22;1693;49.602;11.046;2022-09-03T16:27:31;22.40;99.90
3360;DHT22;1693;49.602;11.046;2022-09-03T16:30:04;22.00;99.90
3360;DHT22;1693;49.602;11.046;2022-09-03T16:32:53;21.60;99.90
3360;DHT22;1693;49.602;11.046;2022-09-03T16:35:32;21.10;99.90
3360;DHT22;1693;49.602;11.046;2022-09-03T16:38:17;20.50;99.90
3360;DHT22;1693;49.602;11.046;2022-09-03T16:40:50;19.70;99.90